sensor_id;sensor_type;location;lat;lon;timestamp;temperature;humidity
68248;SHT30;55064;49.636;12.164;2022-07-23T00:00:10;21.04;61.81
68248;SHT30;55064;49.636;12.164;2022-07-23T00:02:36;20.91;62.94
68248;SHT30;55064;49.636;12.164;2022-07-23T00:05:04;20.98;61.92
68248;SHT30;55064;49.636;12.164;2022-07-23T00:07:31;21.08;61.87
68248;SHT30;55064;49.636;12.164;2022-07-23T00:09:57;21.18;61.64
68248;SHT30;55064;49.636;12.164;2022-07-23T00:12:22;21.25;61.36
68248;SHT30;55064;49.636;12.164;2022-07-23T00:14:48;21.21;61.39
68248;SHT30;55064;49.636;12.164;2022-07-23T00:17:15;21.18;61.13
68248;SHT30;55064;49.636;12.164;2022-07-23T00:19:43;21.21;61.05
68248;SHT30;55064;49.636;12.164;2022-07-23T00:22:08;21.02;62.50
68248;SHT30;55064;49.636;12.164;2022-07-23T00:24:36;20.94;62.78
68248;SHT30;55064;49.636;12.164;2022-07-23T00:27:01;20.84;63.02
68248;SHT30;55064;49.636;12.164;2022-07-23T00:29:27;20.83;62.87
68248;SHT30;55064;49.636;12.164;2022-07-23T00:31:52;20.84;62.35
68248;SHT30;55064;49.636;12.164;2022-07-23T00:34:18;20.90;62.21
68248;SHT30;55064;49.636;12.164;2022-07-23T00:36:45;20.85;62.29
68248;SHT30;55064;49.636;12.164;2022-07-23T00:39:13;20.85;62.43
68248;SHT30;55064;49.636;12.164;2022-07-23T00:41:38;20.84;62.65
68248;SHT30;55064;49.636;12.164;2022-07-23T00:44:20;20.69;63.27
68248;SHT30;55064;49.636;12.164;2022-07-23T00:46:48;20.45;64.83
68248;SHT30;55064;49.636;12.164;2022-07-23T00:49:16;20.17;66.53
68248;SHT30;55064;49.636;12.164;2022-07-23T00:51:44;20.12;64.63
68248;SHT30;55064;49.636;12.164;2022-07-23T00:54:09;20.39;63.70
68248;SHT30;55064;49.636;12.164;2022-07-23T00:56:35;20.53;63.45
68248;SHT30;55064;49.636;12.164;2022-07-23T00:59:03;20.56;67.24
68248;SHT30;55064;49.636;12.164;2022-07-23T01:01:30;20.21;69.28
68248;SHT30;55064;49.636;12.164;2022-07-23T01:03:55;20.07;71.89
68248;SHT30;55064;49.636;12.164;2022-07-23T01:06:23;19.92;70.31
68248;SHT30;55064;49.636;12.164;2022-07-23T01:08:49;19.75;71.89
68248;SHT30;55064;49.636;12.164;2022-07-23T01:11:16;19.80;70.94
68248;SHT30;55064;49.636;12.164;2022-07-23T01:13:43;19.88;73.29
68248;SHT30;55064;49.636;12.164;2022-07-23T01:16:11;19.85;73.93
68248;SHT30;55064;49.636;12.164;2022-07-23T01:18:39;19.83;73.14
68248;SHT30;55064;49.636;12.164;2022-07-23T01:21:05;19.60;74.08
68248;SHT30;55064;49.636;12.164;2022-07-23T01:23:32;19.59;76.03
68248;SHT30;55064;49.636;12.164;2022-07-23T01:25:58;19.42;77.85
68248;SHT30;55064;49.636;12.164;2022-07-23T01:28:26;19.30;79.85
68248;SHT30;55064;49.636;12.164;2022-07-23T01:30:51;19.02;79.92
68248;SHT30;55064;49.636;12.164;2022-07-23T01:33:16;18.90;81.08
68248;SHT30;55064;49.636;12.164;2022-07-23T01:35:44;18.91;81.96
68248;SHT30;55064;49.636;12.164;2022-07-23T01:38:14;18.92;80.91
68248;SHT30;55064;49.636;12.164;2022-07-23T01:40:39;18.71;81.44
68248;SHT30;55064;49.636;12.164;2022-07-23T01:43:07;18.61;82.76
68248;SHT30;55064;49.636;12.164;2022-07-23T01:45:35;18.53;82.16
68248;SHT30;55064;49.636;12.164;2022-07-23T01:48:03;18.56;83.09
68248;SHT30;55064;49.636;12.164;2022-07-23T01:50:31;18.59;82.43
68248;SHT30;55064;49.636;12.164;2022-07-23T01:52:58;18.60;82.19
68248;SHT30;55064;49.636;12.164;2022-07-23T01:55:26;18.70;81.38
68248;SHT30;55064;49.636;12.164;2022-07-23T01:57:52;18.81;80.61
68248;SHT30;55064;49.636;12.164;2022-07-23T02:00:17;18.97;79.06
68248;SHT30;55064;49.636;12.164;2022-07-23T02:02:43;19.28;79.25
68248;SHT30;55064;49.636;12.164;2022-07-23T02:05:15;19.28;78.76
68248;SHT30;55064;49.636;12.164;2022-07-23T02:07:40;19.35;78.24
68248;SHT30;55064;49.636;12.164;2022-07-23T02:10:06;19.33;78.01
68248;SHT30;55064;49.636;12.164;2022-07-23T02:12:32;19.36;77.75
68248;SHT30;55064;49.636;12.164;2022-07-23T02:15:00;19.46;77.11
68248;SHT30;55064;49.636;12.164;2022-07-23T02:17:26;19.37;77.37
68248;SHT30;55064;49.636;12.164;2022-07-23T02:19:51;19.35;77.90
68248;SHT30;55064;49.636;12.164;2022-07-23T02:22:19;19.36;78.60
68248;SHT30;55064;49.636;12.164;2022-07-23T02:24:44;19.32;79.16
68248;SHT30;55064;49.636;12.164;2022-07-23T02:27:12;19.30;79.03
68248;SHT30;55064;49.636;12.164;2022-07-23T02:29:40;19.15;80.05
68248;SHT30;55064;49.636;12.164;2022-07-23T02:32:08;18.94;81.37
68248;SHT30;55064;49.636;12.164;2022-07-23T02:34:33;18.95;80.43
68248;SHT30;55064;49.636;12.164;2022-07-23T02:36:59;19.04;80.15
68248;SHT30;55064;49.636;12.164;2022-07-23T02:39:26;19.04;80.03
68248;SHT30;55064;49.636;12.164;2022-07-23T02:41:54;19.07;80.08
68248;SHT30;55064;49.636;12.164;2022-07-23T02:44:22;19.04;81.30
68248;SHT30;55064;49.636;12.164;2022-07-23T02:46:51;19.01;81.50
68248;SHT30;55064;49.636;12.164;2022-07-23T02:49:16;19.07;81.40
68248;SHT30;55064;49.636;12.164;2022-07-23T02:51:44;19.16;81.41
68248;SHT30;55064;49.636;12.164;2022-07-23T02:54:12;19.11;80.84
68248;SHT30;55064;49.636;12.164;2022-07-23T02:56:37;19.02;81.68
68248;SHT30;55064;49.636;12.164;2022-07-23T02:59:02;19.11;81.72
68248;SHT30;55064;49.636;12.164;2022-07-23T03:01:28;19.04;82.11
68248;SHT30;55064;49.636;12.164;2022-07-23T03:03:56;19.02;82.59
68248;SHT30;55064;49.636;12.164;2022-07-23T03:06:21;19.12;81.81
68248;SHT30;55064;49.636;12.164;2022-07-23T03:08:49;19.01;83.30
68248;SHT30;55064;49.636;12.164;2022-07-23T03:11:15;18.95;82.48
68248;SHT30;55064;49.636;12.164;2022-07-23T03:13:45;18.91;83.50
68248;SHT30;55064;49.636;12.164;2022-07-23T03:16:12;18.87;83.30
68248;SHT30;55064;49.636;12.164;2022-07-23T03:18:40;18.88;82.52
68248;SHT30;55064;49.636;12.164;2022-07-23T03:21:06;18.81;83.81
68248;SHT30;55064;49.636;12.164;2022-07-23T03:23:31;18.56;84.27
68248;SHT30;55064;49.636;12.164;2022-07-23T03:25:59;18.61;84.18
68248;SHT30;55064;49.636;12.164;2022-07-23T03:28:27;18.63;84.11
68248;SHT30;55064;49.636;12.164;2022-07-23T03:30:52;18.70;83.68
68248;SHT30;55064;49.636;12.164;2022-07-23T03:33:20;18.81;84.42
68248;SHT30;55064;49.636;12.164;2022-07-23T03:35:48;18.88;84.01
68248;SHT30;55064;49.636;12.164;2022-07-23T03:38:16;18.85;84.62
68248;SHT30;55064;49.636;12.164;2022-07-23T03:40:41;18.91;85.00
68248;SHT30;55064;49.636;12.164;2022-07-23T03:43:12;18.87;84.33
68248;SHT30;55064;49.636;12.164;2022-07-23T03:45:41;18.83;85.19
68248;SHT30;55064;49.636;12.164;2022-07-23T03:48:08;18.95;84.27
68248;SHT30;55064;49.636;12.164;2022-07-23T03:50:34;18.99;83.08
68248;SHT30;55064;49.636;12.164;2022-07-23T03:53:02;19.15;82.56
68248;SHT30;55064;49.636;12.164;2022-07-23T03:55:27;19.20;82.10
68248;SHT30;55064;49.636;12.164;2022-07-23T03:57:56;19.47;79.96
68248;SHT30;55064;49.636;12.164;2022-07-23T04:00:21;19.47;80.62
68248;SHT30;55064;49.636;12.164;2022-07-23T04:02:46;19.50;79.77
68248;SHT30;55064;49.636;12.164;2022-07-23T04:05:14;19.71;78.35
68248;SHT30;55064;49.636;12.164;2022-07-23T04:07:43;19.84;78.29
68248;SHT30;55064;49.636;12.164;2022-07-23T04:10:10;19.95;76.90
68248;SHT30;55064;49.636;12.164;2022-07-23T04:12:36;19.98;77.21
68248;SHT30;55064;49.636;12.164;2022-07-23T04:15:03;20.02;76.62
68248;SHT30;55064;49.636;12.164;2022-07-23T04:17:29;20.15;75.83
68248;SHT30;55064;49.636;12.164;2022-07-23T04:19:54;20.17;75.97
68248;SHT30;55064;49.636;12.164;2022-07-23T04:22:20;20.25;75.07
68248;SHT30;55064;49.636;12.164;2022-07-23T04:24:45;20.28;74.31
68248;SHT30;55064;49.636;12.164;2022-07-23T04:27:11;20.26;74.62
68248;SHT30;55064;49.636;12.164;2022-07-23T04:29:39;20.24;74.65
68248;SHT30;55064;49.636;12.164;2022-07-23T04:32:04;20.22;74.64
68248;SHT30;55064;49.636;12.164;2022-07-23T04:34:30;20.21;74.36
68248;SHT30;55064;49.636;12.164;2022-07-23T04:36:58;20.25;75.28
68248;SHT30;55064;49.636;12.164;2022-07-23T04:39:30;20.21;75.27
68248;SHT30;55064;49.636;12.164;2022-07-23T04:41:56;20.17;75.05
68248;SHT30;55064;49.636;12.164;2022-07-23T04:44:24;20.19;75.30
68248;SHT30;55064;49.636;12.164;2022-07-23T04:46:49;20.22;74.66
68248;SHT30;55064;49.636;12.164;2022-07-23T04:49:14;20.29;74.49
68248;SHT30;55064;49.636;12.164;2022-07-23T04:51:42;20.28;74.19
68248;SHT30;55064;49.636;12.164;2022-07-23T04:54:07;20.33;73.58
68248;SHT30;55064;49.636;12.164;2022-07-23T04:56:38;20.36;74.09
68248;SHT30;55064;49.636;12.164;2022-07-23T04:59:06;20.42;72.94
68248;SHT30;55064;49.636;12.164;2022-07-23T05:01:34;20.46;72.87
68248;SHT30;55064;49.636;12.164;2022-07-23T05:04:01;20.47;71.65
68248;SHT30;55064;49.636;12.164;2022-07-23T05:06:29;20.49;71.99
68248;SHT30;55064;49.636;12.164;2022-07-23T05:08:57;20.56;71.67
68248;SHT30;55064;49.636;12.164;2022-07-23T05:11:22;20.56;71.64
68248;SHT30;55064;49.636;12.164;2022-07-23T05:13:48;20.56;72.07
68248;SHT30;55064;49.636;12.164;2022-07-23T05:16:15;20.60;71.42
68248;SHT30;55064;49.636;12.164;2022-07-23T05:18:45;20.63;71.86
68248;SHT30;55064;49.636;12.164;2022-07-23T05:21:11;20.63;72.91
68248;SHT30;55064;49.636;12.164;2022-07-23T05:23:39;20.66;73.32
68248;SHT30;55064;49.636;12.164;2022-07-23T05:26:04;20.69;72.85
68248;SHT30;55064;49.636;12.164;2022-07-23T05:28:35;20.73;72.45
68248;SHT30;55064;49.636;12.164;2022-07-23T05:31:00;20.85;71.69
68248;SHT30;55064;49.636;12.164;2022-07-23T05:33:29;21.22;71.29
68248;SHT30;55064;49.636;12.164;2022-07-23T05:36:02;21.34;70.33
68248;SHT30;55064;49.636;12.164;2022-07-23T05:38:32;21.38;71.07
68248;SHT30;55064;49.636;12.164;2022-07-23T05:40:57;21.27;70.91
68248;SHT30;55064;49.636;12.164;2022-07-23T05:43:23;21.55;71.84
68248;SHT30;55064;49.636;12.164;2022-07-23T05:45:49;21.49;71.37
68248;SHT30;55064;49.636;12.164;2022-07-23T05:48:14;21.63;71.82
68248;SHT30;55064;49.636;12.164;2022-07-23T05:50:40;21.49;70.29
68248;SHT30;55064;49.636;12.164;2022-07-23T05:53:05;21.52;70.36
68248;SHT30;55064;49.636;12.164;2022-07-23T05:55:30;21.46;69.94
68248;SHT30;55064;49.636;12.164;2022-07-23T05:58:01;21.53;70.47
68248;SHT30;55064;49.636;12.164;2022-07-23T06:00:27;21.63;71.31
68248;SHT30;55064;49.636;12.164;2022-07-23T06:02:56;21.59;70.86
68248;SHT30;55064;49.636;12.164;2022-07-23T06:05:22;21.53;71.09
68248;SHT30;55064;49.636;12.164;2022-07-23T06:07:47;21.50;69.84
68248;SHT30;55064;49.636;12.164;2022-07-23T06:10:16;21.63;69.22
68248;SHT30;55064;49.636;12.164;2022-07-23T06:12:41;21.73;68.65
68248;SHT30;55064;49.636;12.164;2022-07-23T06:15:07;21.79;67.62
68248;SHT30;55064;49.636;12.164;2022-07-23T06:17:33;21.89;67.91
68248;SHT30;55064;49.636;12.164;2022-07-23T06:19:59;21.80;67.35
68248;SHT30;55064;49.636;12.164;2022-07-23T06:22:26;21.90;67.56
68248;SHT30;55064;49.636;12.164;2022-07-23T06:24:52;21.98;67.33
68248;SHT30;55064;49.636;12.164;2022-07-23T06:27:18;22.15;66.87
68248;SHT30;55064;49.636;12.164;2022-07-23T06:29:43;22.22;66.39
68248;SHT30;55064;49.636;12.164;2022-07-23T06:32:11;22.35;65.49
68248;SHT30;55064;49.636;12.164;2022-07-23T06:34:36;22.59;65.24
68248;SHT30;55064;49.636;12.164;2022-07-23T06:37:04;22.59;64.54
68248;SHT30;55064;49.636;12.164;2022-07-23T06:39:30;22.53;65.11
68248;SHT30;55064;49.636;12.164;2022-07-23T06:41:55;22.39;64.30
68248;SHT30;55064;49.636;12.164;2022-07-23T06:44:23;22.49;65.30
68248;SHT30;55064;49.636;12.164;2022-07-23T06:46:49;22.68;65.27
68248;SHT30;55064;49.636;12.164;2022-07-23T06:49:19;22.89;64.43
68248;SHT30;55064;49.636;12.164;2022-07-23T06:51:47;22.99;64.42
68248;SHT30;55064;49.636;12.164;2022-07-23T06:54:15;23.00;63.84
68248;SHT30;55064;49.636;12.164;2022-07-23T06:56:43;23.07;63.76
68248;SHT30;55064;49.636;12.164;2022-07-23T06:59:11;23.35;63.37
68248;SHT30;55064;49.636;12.164;2022-07-23T07:01:38;23.47;62.88
68248;SHT30;55064;49.636;12.164;2022-07-23T07:04:04;23.57;62.50
68248;SHT30;55064;49.636;12.164;2022-07-23T07:06:29;23.62;62.40
68248;SHT30;55064;49.636;12.164;2022-07-23T07:08:55;23.76;61.45
68248;SHT30;55064;49.636;12.164;2022-07-23T07:11:21;24.02;60.60
68248;SHT30;55064;49.636;12.164;2022-07-23T07:13:49;24.10;60.23
68248;SHT30;55064;49.636;12.164;2022-07-23T07:16:15;24.02;61.01
68248;SHT30;55064;49.636;12.164;2022-07-23T07:18:40;24.23;60.59
68248;SHT30;55064;49.636;12.164;2022-07-23T07:21:08;24.14;60.22
68248;SHT30;55064;49.636;12.164;2022-07-23T07:23:33;24.30;60.21
68248;SHT30;55064;49.636;12.164;2022-07-23T07:25:58;24.40;59.77
68248;SHT30;55064;49.636;12.164;2022-07-23T07:28:26;24.50;58.81
68248;SHT30;55064;49.636;12.164;2022-07-23T07:30:52;24.61;58.04
68248;SHT30;55064;49.636;12.164;2022-07-23T07:33:20;24.61;57.28
68248;SHT30;55064;49.636;12.164;2022-07-23T07:35:46;24.71;57.49
68248;SHT30;55064;49.636;12.164;2022-07-23T07:38:11;24.80;57.55
68248;SHT30;55064;49.636;12.164;2022-07-23T07:40:40;24.93;56.99
68248;SHT30;55064;49.636;12.164;2022-07-23T07:43:05;24.93;57.27
68248;SHT30;55064;49.636;12.164;2022-07-23T07:45:31;25.06;56.72
68248;SHT30;55064;49.636;12.164;2022-07-23T07:47:56;25.07;56.64
68248;SHT30;55064;49.636;12.164;2022-07-23T07:50:24;25.14;56.38
68248;SHT30;55064;49.636;12.164;2022-07-23T07:52:52;25.14;56.47
68248;SHT30;55064;49.636;12.164;2022-07-23T07:55:19;25.24;56.27
68248;SHT30;55064;49.636;12.164;2022-07-23T07:57:45;25.24;56.25
68248;SHT30;55064;49.636;12.164;2022-07-23T08:00:11;25.31;56.12
68248;SHT30;55064;49.636;12.164;2022-07-23T08:05:06;25.31;57.11
68248;SHT30;55064;49.636;12.164;2022-07-23T08:07:31;25.34;56.78
68248;SHT30;55064;49.636;12.164;2022-07-23T08:09:57;25.28;57.27
68248;SHT30;55064;49.636;12.164;2022-07-23T08:12:27;25.19;57.30
68248;SHT30;55064;49.636;12.164;2022-07-23T08:14:55;25.10;57.39
68248;SHT30;55064;49.636;12.164;2022-07-23T08:17:21;25.03;57.05
68248;SHT30;55064;49.636;12.164;2022-07-23T08:19:49;25.00;57.16
68248;SHT30;55064;49.636;12.164;2022-07-23T08:22:15;24.82;57.16
68248;SHT30;55064;49.636;12.164;2022-07-23T08:24:43;24.89;57.21
68248;SHT30;55064;49.636;12.164;2022-07-23T08:27:08;24.90;57.29
68248;SHT30;55064;49.636;12.164;2022-07-23T08:29:34;24.99;57.80
68248;SHT30;55064;49.636;12.164;2022-07-23T08:32:00;25.03;56.70
68248;SHT30;55064;49.636;12.164;2022-07-23T08:34:28;25.17;57.09
68248;SHT30;55064;49.636;12.164;2022-07-23T08:36:56;25.22;56.74
68248;SHT30;55064;49.636;12.164;2022-07-23T08:39:24;25.34;56.32
68248;SHT30;55064;49.636;12.164;2022-07-23T08:41:52;25.68;55.73
68248;SHT30;55064;49.636;12.164;2022-07-23T08:44:21;26.13;54.53
68248;SHT30;55064;49.636;12.164;2022-07-23T08:46:47;26.37;53.89
68248;SHT30;55064;49.636;12.164;2022-07-23T08:49:15;26.37;52.84
68248;SHT30;55064;49.636;12.164;2022-07-23T08:51:41;26.23;53.22
68248;SHT30;55064;49.636;12.164;2022-07-23T08:54:10;26.06;53.83
68248;SHT30;55064;49.636;12.164;2022-07-23T08:56:36;26.29;52.82
68248;SHT30;55064;49.636;12.164;2022-07-23T08:59:03;26.06;53.15
68248;SHT30;55064;49.636;12.164;2022-07-23T09:01:29;25.99;53.75
68248;SHT30;55064;49.636;12.164;2022-07-23T09:03:55;26.20;53.55
68248;SHT30;55064;49.636;12.164;2022-07-23T09:06:20;26.67;52.68
68248;SHT30;55064;49.636;12.164;2022-07-23T09:08:48;26.91;51.30
68248;SHT30;55064;49.636;12.164;2022-07-23T09:11:16;26.87;51.55
68248;SHT30;55064;49.636;12.164;2022-07-23T09:13:47;26.62;51.82
68248;SHT30;55064;49.636;12.164;2022-07-23T09:18:48;26.60;52.21
68248;SHT30;55064;49.636;12.164;2022-07-23T09:21:25;26.61;51.37
68248;SHT30;55064;49.636;12.164;2022-07-23T09:24:10;26.48;52.29
68248;SHT30;55064;49.636;12.164;2022-07-23T09:26:48;26.50;51.88
68248;SHT30;55064;49.636;12.164;2022-07-23T09:31:47;26.60;51.38
68248;SHT30;55064;49.636;12.164;2022-07-23T09:36:42;26.62;48.91
68248;SHT30;55064;49.636;12.164;2022-07-23T09:39:08;26.43;47.89
68248;SHT30;55064;49.636;12.164;2022-07-23T09:41:39;26.22;48.48
68248;SHT30;55064;49.636;12.164;2022-07-23T09:44:12;26.09;49.07
68248;SHT30;55064;49.636;12.164;2022-07-23T09:46:49;25.85;51.29
68248;SHT30;55064;49.636;12.164;2022-07-23T09:49:20;25.58;52.62
68248;SHT30;55064;49.636;12.164;2022-07-23T09:51:49;25.40;53.40
68248;SHT30;55064;49.636;12.164;2022-07-23T09:54:24;25.05;53.14
68248;SHT30;55064;49.636;12.164;2022-07-23T09:56:53;24.99;53.11
68248;SHT30;55064;49.636;12.164;2022-07-23T09:59:25;24.68;51.97
68248;SHT30;55064;49.636;12.164;2022-07-23T10:01:53;24.50;51.44
68248;SHT30;55064;49.636;12.164;2022-07-23T10:04:21;24.35;51.73
68248;SHT30;55064;49.636;12.164;2022-07-23T10:06:47;24.37;51.99
68248;SHT30;55064;49.636;12.164;2022-07-23T10:09:15;24.25;51.63
68248;SHT30;55064;49.636;12.164;2022-07-23T10:11:44;24.21;52.31
68248;SHT30;55064;49.636;12.164;2022-07-23T10:14:12;24.20;52.56
68248;SHT30;55064;49.636;12.164;2022-07-23T10:16:39;24.02;52.95
68248;SHT30;55064;49.636;12.164;2022-07-23T10:19:05;23.72;55.10
68248;SHT30;55064;49.636;12.164;2022-07-23T10:21:40;23.51;56.36
68248;SHT30;55064;49.636;12.164;2022-07-23T10:30:06;22.65;64.35
68248;SHT30;55064;49.636;12.164;2022-07-23T10:35:33;22.30;64.73
68248;SHT30;55064;49.636;12.164;2022-07-23T10:38:18;22.30;66.08
68248;SHT30;55064;49.636;12.164;2022-07-23T10:43:26;22.35;67.05
68248;SHT30;55064;49.636;12.164;2022-07-23T10:45:52;22.38;65.75
68248;SHT30;55064;49.636;12.164;2022-07-23T10:48:22;22.17;67.06
68248;SHT30;55064;49.636;12.164;2022-07-23T10:51:10;21.82;67.35
68248;SHT30;55064;49.636;12.164;2022-07-23T10:59:19;22.03;68.10
68248;SHT30;55064;49.636;12.164;2022-07-23T11:01:47;22.11;67.86
68248;SHT30;55064;49.636;12.164;2022-07-23T11:04:17;21.90;69.67
68248;SHT30;55064;49.636;12.164;2022-07-23T11:15:10;21.32;77.57
68248;SHT30;55064;49.636;12.164;2022-07-23T11:25:13;21.62;76.49
68248;SHT30;55064;49.636;12.164;2022-07-23T11:27:43;21.60;72.08
68248;SHT30;55064;49.636;12.164;2022-07-23T11:35:44;21.92;72.13
68248;SHT30;55064;49.636;12.164;2022-07-23T11:40:53;22.27;73.41
68248;SHT30;55064;49.636;12.164;2022-07-23T11:43:41;22.45;72.47
68248;SHT30;55064;49.636;12.164;2022-07-23T11:46:29;22.56;71.79
68248;SHT30;55064;49.636;12.164;2022-07-23T11:49:02;22.63;71.11
68248;SHT30;55064;49.636;12.164;2022-07-23T11:51:30;22.63;71.53
68248;SHT30;55064;49.636;12.164;2022-07-23T11:54:05;22.31;70.34
68248;SHT30;55064;49.636;12.164;2022-07-23T11:56:31;22.48;70.04
68248;SHT30;55064;49.636;12.164;2022-07-23T11:59:01;22.52;69.61
68248;SHT30;55064;49.636;12.164;2022-07-23T12:01:28;22.60;68.15
68248;SHT30;55064;49.636;12.164;2022-07-23T12:04:08;22.66;66.76
68248;SHT30;55064;49.636;12.164;2022-07-23T12:06:37;22.68;66.65
68248;SHT30;55064;49.636;12.164;2022-07-23T12:09:03;22.56;66.24
68248;SHT30;55064;49.636;12.164;2022-07-23T12:11:28;22.66;65.69
68248;SHT30;55064;49.636;12.164;2022-07-23T12:13:57;22.72;66.82
68248;SHT30;55064;49.636;12.164;2022-07-23T12:16:34;22.80;66.20
68248;SHT30;55064;49.636;12.164;2022-07-23T12:19:03;22.86;63.98
68248;SHT30;55064;49.636;12.164;2022-07-23T12:22:06;22.62;64.57
68248;SHT30;55064;49.636;12.164;2022-07-23T12:24:58;22.66;64.36
68248;SHT30;55064;49.636;12.164;2022-07-23T12:27:32;22.72;64.95
68248;SHT30;55064;49.636;12.164;2022-07-23T12:30:14;22.63;64.74
68248;SHT30;55064;49.636;12.164;2022-07-23T12:32:46;22.47;65.98
68248;SHT30;55064;49.636;12.164;2022-07-23T12:35:15;22.53;65.26
68248;SHT30;55064;49.636;12.164;2022-07-23T12:37:43;22.69;65.70
68248;SHT30;55064;49.636;12.164;2022-07-23T12:43:18;22.99;63.77
68248;SHT30;55064;49.636;12.164;2022-07-23T12:48:32;23.27;62.13
68248;SHT30;55064;49.636;12.164;2022-07-23T12:51:05;22.77;63.20
68248;SHT30;55064;49.636;12.164;2022-07-23T12:53:39;22.69;63.73
68248;SHT30;55064;49.636;12.164;2022-07-23T12:58:56;23.52;61.86
68248;SHT30;55064;49.636;12.164;2022-07-23T13:03:59;23.93;58.11
68248;SHT30;55064;49.636;12.164;2022-07-23T13:06:27;24.24;58.05
68248;SHT30;55064;49.636;12.164;2022-07-23T13:08:53;24.21;58.36
68248;SHT30;55064;49.636;12.164;2022-07-23T13:11:19;24.44;57.76
68248;SHT30;55064;49.636;12.164;2022-07-23T13:13:46;24.09;58.14
68248;SHT30;55064;49.636;12.164;2022-07-23T13:16:12;24.78;58.01
68248;SHT30;55064;49.636;12.164;2022-07-23T13:18:37;25.30;55.06
68248;SHT30;55064;49.636;12.164;2022-07-23T13:21:03;25.37;54.47
68248;SHT30;55064;49.636;12.164;2022-07-23T13:23:29;25.69;53.50
68248;SHT30;55064;49.636;12.164;2022-07-23T13:25:57;25.90;53.32
68248;SHT30;55064;49.636;12.164;2022-07-23T13:28:22;26.20;52.08
68248;SHT30;55064;49.636;12.164;2022-07-23T13:30:51;26.26;50.88
68248;SHT30;55064;49.636;12.164;2022-07-23T13:33:22;26.44;50.41
68248;SHT30;55064;49.636;12.164;2022-07-23T13:35:48;26.58;50.57
68248;SHT30;55064;49.636;12.164;2022-07-23T13:38:14;26.58;49.98
68248;SHT30;55064;49.636;12.164;2022-07-23T13:40:43;26.68;49.52
68248;SHT30;55064;49.636;12.164;2022-07-23T13:43:12;26.78;48.72
68248;SHT30;55064;49.636;12.164;2022-07-23T13:45:38;26.67;49.39
68248;SHT30;55064;49.636;12.164;2022-07-23T13:48:08;26.71;49.09
68248;SHT30;55064;49.636;12.164;2022-07-23T13:50:34;26.51;48.82
68248;SHT30;55064;49.636;12.164;2022-07-23T13:53:07;26.75;48.21
68248;SHT30;55064;49.636;12.164;2022-07-23T13:55:34;27.06;48.31
68248;SHT30;55064;49.636;12.164;2022-07-23T13:58:00;27.26;47.32
68248;SHT30;55064;49.636;12.164;2022-07-23T14:00:27;27.33;47.05
68248;SHT30;55064;49.636;12.164;2022-07-23T14:02:55;27.05;47.61
68248;SHT30;55064;49.636;12.164;2022-07-23T14:05:20;26.71;48.46
68248;SHT30;55064;49.636;12.164;2022-07-23T14:07:48;26.99;48.33
68248;SHT30;55064;49.636;12.164;2022-07-23T14:10:16;27.23;47.31
68248;SHT30;55064;49.636;12.164;2022-07-23T14:12:43;27.60;46.26
68248;SHT30;55064;49.636;12.164;2022-07-23T14:15:12;27.70;46.37
68248;SHT30;55064;49.636;12.164;2022-07-23T14:17:39;27.09;47.82
68248;SHT30;55064;49.636;12.164;2022-07-23T14:20:09;27.16;47.45
68248;SHT30;55064;49.636;12.164;2022-07-23T14:22:35;27.32;47.24
68248;SHT30;55064;49.636;12.164;2022-07-23T14:25:05;27.46;46.88
68248;SHT30;55064;49.636;12.164;2022-07-23T14:27:36;27.65;46.42
68248;SHT30;55064;49.636;12.164;2022-07-23T14:30:09;27.85;46.42
68248;SHT30;55064;49.636;12.164;2022-07-23T14:32:35;27.39;46.43
68248;SHT30;55064;49.636;12.164;2022-07-23T14:35:02;27.30;46.66
68248;SHT30;55064;49.636;12.164;2022-07-23T14:37:27;27.57;46.09
68248;SHT30;55064;49.636;12.164;2022-07-23T14:39:53;27.72;45.23
68248;SHT30;55064;49.636;12.164;2022-07-23T14:42:19;28.20;45.14
68248;SHT30;55064;49.636;12.164;2022-07-23T14:44:44;28.47;44.70
68248;SHT30;55064;49.636;12.164;2022-07-23T14:47:12;28.42;44.44
68248;SHT30;55064;49.636;12.164;2022-07-23T14:49:40;28.33;43.64
68248;SHT30;55064;49.636;12.164;2022-07-23T14:52:06;28.53;43.52
68248;SHT30;55064;49.636;12.164;2022-07-23T14:54:34;28.50;42.94
68248;SHT30;55064;49.636;12.164;2022-07-23T14:57:03;28.05;43.09
68248;SHT30;55064;49.636;12.164;2022-07-23T14:59:29;27.76;45.49
68248;SHT30;55064;49.636;12.164;2022-07-23T15:01:58;27.50;45.75
68248;SHT30;55064;49.636;12.164;2022-07-23T15:04:23;27.58;45.86
68248;SHT30;55064;49.636;12.164;2022-07-23T15:06:52;27.87;45.61
68248;SHT30;55064;49.636;12.164;2022-07-23T15:09:20;28.09;45.52
68248;SHT30;55064;49.636;12.164;2022-07-23T15:11:45;28.08;46.32
68248;SHT30;55064;49.636;12.164;2022-07-23T15:14:16;28.16;46.36
68248;SHT30;55064;49.636;12.164;2022-07-23T15:16:41;28.04;47.09
68248;SHT30;55064;49.636;12.164;2022-07-23T15:19:06;27.78;48.26
68248;SHT30;55064;49.636;12.164;2022-07-23T15:21:34;27.84;48.71
68248;SHT30;55064;49.636;12.164;2022-07-23T15:24:02;27.92;48.65
68248;SHT30;55064;49.636;12.164;2022-07-23T15:26:30;28.12;48.44
68248;SHT30;55064;49.636;12.164;2022-07-23T15:28:56;28.22;47.75
68248;SHT30;55064;49.636;12.164;2022-07-23T15:31:24;28.32;48.14
68248;SHT30;55064;49.636;12.164;2022-07-23T15:33:51;28.40;47.56
68248;SHT30;55064;49.636;12.164;2022-07-23T15:36:18;28.29;48.17
68248;SHT30;55064;49.636;12.164;2022-07-23T15:38:46;28.32;48.10
68248;SHT30;55064;49.636;12.164;2022-07-23T15:41:12;28.09;49.01
68248;SHT30;55064;49.636;12.164;2022-07-23T15:43:38;28.09;48.74
68248;SHT30;55064;49.636;12.164;2022-07-23T15:46:06;27.90;49.06
68248;SHT30;55064;49.636;12.164;2022-07-23T15:48:37;28.05;48.95
68248;SHT30;55064;49.636;12.164;2022-07-23T15:51:05;28.15;49.18
68248;SHT30;55064;49.636;12.164;2022-07-23T15:53:35;28.02;48.91
68248;SHT30;55064;49.636;12.164;2022-07-23T15:56:01;28.20;48.88
68248;SHT30;55064;49.636;12.164;2022-07-23T15:58:29;28.26;48.22
68248;SHT30;55064;49.636;12.164;2022-07-23T16:00:57;28.23;48.64
68248;SHT30;55064;49.636;12.164;2022-07-23T16:03:23;28.18;48.51
68248;SHT30;55064;49.636;12.164;2022-07-23T16:05:48;27.99;49.00
68248;SHT30;55064;49.636;12.164;2022-07-23T16:08:16;28.02;48.63
68248;SHT30;55064;49.636;12.164;2022-07-23T16:10:42;27.78;48.81
68248;SHT30;55064;49.636;12.164;2022-07-23T16:13:07;27.58;49.59
68248;SHT30;55064;49.636;12.164;2022-07-23T16:15:32;27.50;49.69
68248;SHT30;55064;49.636;12.164;2022-07-23T16:18:00;27.30;50.40
68248;SHT30;55064;49.636;12.164;2022-07-23T16:20:31;27.30;50.77